Time;durP1;ratioP1;P1;durP2;ratioP2;P2;SDS_P1;SDS_P2;PMS_P1;PMS_P2;Temp;Humidity;BMP_temperature;BMP_pressure;BME280_temperature;BME280_humidity;BME280_pressure;Samples;Min_cycle;Max_cycle;Signal;HPM_P1;HPM_P2
2023/06/12 00:00:10;;;;;;;4.53;3.40;;;;;;;15.85;71.39;94266.06;5086875;28;20039;-71
2023/06/12 00:02:37;;;;;;;7.50;3.88;;;;;;;15.92;70.36;94258.34;5090163;28;20036;-72
2023/06/12 00:05:04;;;;;;;5.85;4.03;;;;;;;15.97;70.38;94263.88;5068336;28;20063;-72
2023/06/12 00:07:31;;;;;;;5.32;3.80;;;;;;;15.85;70.56;94260.84;5050357;28;20855;-72
2023/06/12 00:09:57;;;;;;;4.30;3.30;;;;;;;15.71;70.77;94243.25;5085459;28;20028;-72
2023/06/12 00:12:22;;;;;;;4.68;3.70;;;;;;;15.70;70.88;94251.25;5069971;28;20029;-72
2023/06/12 00:14:48;;;;;;;5.03;3.53;;;;;;;15.69;70.65;94254.88;5087590;28;20030;-72
2023/06/12 00:17:13;;;;;;;4.60;3.92;;;;;;;15.70;70.98;94259.94;5069731;28;20040;-72
2023/06/12 00:19:38;;;;;;;4.43;3.75;;;;;;;15.69;70.65;94257.50;5089387;28;20039;-72
2023/06/12 00:22:04;;;;;;;5.25;3.63;;;;;;;15.70;70.39;94265.16;5069611;28;20043;-72
2023/06/12 00:24:29;;;;;;;5.65;3.55;;;;;;;15.59;70.43;94261.09;5064590;28;20040;-72
2023/06/12 00:26:55;;;;;;;6.30;3.95;;;;;;;15.58;70.53;94262.09;5070247;28;20047;-72
2023/06/12 00:29:20;;;;;;;6.97;3.60;;;;;;;15.56;70.79;94266.66;5086308;28;20494;-72
2023/06/12 00:31:46;;;;;;;6.30;4.03;;;;;;;15.59;71.12;94255.03;5071450;28;20433;-72
2023/06/12 00:34:11;;;;;;;4.95;3.85;;;;;;;15.55;70.93;94256.38;5088325;28;20441;-72
2023/06/12 00:36:37;;;;;;;6.28;3.55;;;;;;;15.59;70.65;94239.34;5086936;28;20048;-71
2023/06/12 00:39:03;;;;;;;4.38;3.55;;;;;;;15.65;70.76;94249.94;5066135;28;20032;-72
2023/06/12 00:41:28;;;;;;;4.80;4.10;;;;;;;15.62;70.74;94245.03;5068140;28;20043;-72
2023/06/12 00:43:54;;;;;;;6.85;3.72;;;;;;;15.55;71.28;94244.09;5066157;28;20032;-72
2023/06/12 00:46:20;;;;;;;6.00;4.00;;;;;;;15.50;70.93;94246.41;5081489;28;20036;-70
2023/06/12 00:48:47;;;;;;;5.60;3.70;;;;;;;15.43;70.82;94221.91;5068550;28;20098;-70
2023/06/12 00:51:12;;;;;;;4.63;4.10;;;;;;;15.54;70.78;94245.06;5089097;28;20027;-70
2023/06/12 00:53:38;;;;;;;5.70;3.65;;;;;;;15.37;70.85;94233.88;5065822;28;20033;-70
2023/06/12 00:56:03;;;;;;;9.38;3.72;;;;;;;15.41;70.70;94232.56;5087343;28;20036;-71
2023/06/12 00:58:29;;;;;;;6.03;3.85;;;;;;;15.62;70.39;94258.13;5068668;28;20031;-71
2023/06/12 01:00:56;;;;;;;4.90;3.67;;;;;;;15.57;70.39;94242.13;5070581;28;20032;-71
2023/06/12 01:03:22;;;;;;;4.72;3.47;;;;;;;15.65;70.41;94260.41;5086938;28;20475;-72
2023/06/12 01:05:47;;;;;;;8.48;3.92;;;;;;;15.64;70.54;94255.34;5067435;28;20110;-72
2023/06/12 01:08:16;;;;;;;5.60;3.60;;;;;;;15.58;70.67;94256.84;5067499;28;20477;-72
2023/06/12 01:10:46;;;;;;;5.75;3.83;;;;;;;15.55;70.99;94253.78;5087361;28;20032;-72
2023/06/12 01:13:12;;;;;;;7.22;3.72;;;;;;;15.68;70.61;94258.44;5050862;28;20070;-72
2023/06/12 01:15:38;;;;;;;5.47;3.83;;;;;;;15.78;69.95;94254.66;5060828;28;20064;-72
2023/06/12 01:18:07;;;;;;;6.25;3.50;;;;;;;15.68;70.07;94254.03;5048806;28;20020;-72
2023/06/12 01:20:33;;;;;;;4.47;3.90;;;;;;;15.68;70.31;94253.19;5070461;28;20032;-72
2023/06/12 01:23:18;;;;;;;5.15;3.75;;;;;;;15.65;71.14;94265.63;5052050;28;20060;-71
2023/06/12 01:25:43;;;;;;;5.38;3.70;;;;;;;15.79;70.71;94261.50;5087852;28;20506;-72
2023/06/12 01:28:22;;;;;;;8.65;3.47;;;;;;;15.82;70.36;94257.72;5083873;28;20101;-72
2023/06/12 01:31:13;;;;;;;5.15;3.80;;;;;;;15.65;70.55;94254.34;5082802;28;20069;-72
2023/06/12 01:33:40;;;;;;;;;;;;;;;15.65;70.21;94260.41;5054717;28;20032;-71
2023/06/12 01:36:08;;;;;;;5.50;4.10;;;;;;;15.57;70.67;94267.47;5087088;28;19920;-72
2023/06/12 01:38:34;;;;;;;5.80;3.50;;;;;;;15.65;70.17;94259.59;5067222;28;20482;-72
2023/06/12 01:41:00;;;;;;;4.55;3.85;;;;;;;15.56;70.16;94261.44;5070426;28;20506;-72
2023/06/12 01:43:25;;;;;;;3.92;3.40;;;;;;;15.64;69.97;94258.78;5052624;28;20073;-72
2023/06/12 01:45:51;;;;;;;4.88;3.67;;;;;;;15.47;69.62;94251.19;5063725;28;20043;-71
2023/06/12 01:48:16;;;;;;;4.97;3.75;;;;;;;15.23;69.52;94212.84;5064525;28;20044;-72
2023/06/12 01:50:43;;;;;;;6.40;3.70;;;;;;;15.27;69.70;94214.16;5069475;28;20098;-71
2023/06/12 01:53:10;;;;;;;6.45;3.83;;;;;;;14.94;70.05;94182.88;5084500;28;20031;-71
2023/06/12 01:55:36;;;;;;;5.93;3.97;;;;;;;15.24;69.71;94198.75;5066807;28;20583;-72
2023/06/12 01:58:02;;;;;;;3.95;3.28;;;;;;;15.63;69.37;94251.91;5066470;28;20028;-71
2023/06/12 02:00:27;;;;;;;5.88;3.60;;;;;;;15.61;68.82;94243.41;5052703;28;20036;-71
2023/06/12 02:02:55;;;;;;;5.72;3.83;;;;;;;15.57;69.32;94259.63;5069454;28;20087;-71
2023/06/12 02:05:20;;;;;;;4.50;3.53;;;;;;;15.53;69.53;94266.19;5068961;28;20513;-72
2023/06/12 02:07:45;;;;;;;6.90;3.58;;;;;;;15.50;69.70;94261.31;5085165;28;20032;-71
2023/06/12 02:10:11;;;;;;;5.90;3.70;;;;;;;15.53;69.84;94260.97;5069947;28;20042;-71
2023/06/12 02:12:36;;;;;;;6.05;3.88;;;;;;;15.49;69.96;94265.72;5088228;28;20501;-72
2023/06/12 02:15:02;;;;;;;5.65;3.80;;;;;;;15.48;69.73;94253.63;5066570;28;20441;-72
2023/06/12 02:17:28;;;;;;;5.35;3.55;;;;;;;15.64;69.57;94261.41;5064474;28;20082;-72
2023/06/12 02:19:53;;;;;;;4.20;3.17;;;;;;;15.74;69.21;94270.88;5085929;28;20036;-72
2023/06/12 02:22:19;;;;;;;8.07;3.67;;;;;;;15.61;69.32;94274.84;5065908;28;20028;-71
2023/06/12 02:24:46;;;;;;;4.82;3.63;;;;;;;15.51;69.62;94268.16;5085773;28;20123;-71
2023/06/12 02:27:12;;;;;;;6.38;3.90;;;;;;;15.61;69.63;94277.44;5052032;28;20279;-71
2023/06/12 02:29:37;;;;;;;5.88;3.67;;;;;;;15.45;69.66;94255.75;5080373;28;20036;-71
2023/06/12 02:32:03;;;;;;;8.13;3.90;;;;;;;15.52;69.83;94269.81;5080255;28;20452;-72
2023/06/12 02:34:28;;;;;;;4.97;3.72;;;;;;;15.58;69.74;94272.56;5086059;28;20085;-71
2023/06/12 02:36:54;;;;;;;8.27;4.03;;;;;;;15.52;69.69;94285.53;5067198;28;20571;-72
2023/06/12 02:39:20;;;;;;;5.35;3.70;;;;;;;15.58;70.31;94280.41;5056987;28;20501;-71
2023/06/12 02:41:46;;;;;;;5.88;4.47;;;;;;;15.45;71.26;94268.84;5069506;28;20405;-71
2023/06/12 02:44:12;;;;;;;5.95;4.10;;;;;;;15.53;71.46;94281.91;5067177;28;20036;-71
2023/06/12 02:46:58;;;;;;;5.90;4.22;;;;;;;15.52;71.41;94291.56;5086129;28;20039;-71
2023/06/12 02:49:28;;;;;;;5.90;3.83;;;;;;;15.73;69.89;94287.56;5085583;28;20162;-71
2023/06/12 02:51:54;;;;;;;5.22;3.90;;;;;;;15.61;68.92;94285.31;5066176;28;20033;-72
2023/06/12 02:54:24;;;;;;;4.50;3.63;;;;;;;15.58;69.16;94285.66;5064971;28;20040;-71
2023/06/12 02:56:50;;;;;;;4.65;3.90;;;;;;;15.61;68.91;94287.91;5067657;28;20032;-72
2023/06/12 02:59:17;;;;;;;5.22;3.72;;;;;;;15.48;69.15;94285.03;5083127;28;20032;-71
2023/06/12 03:01:45;;;;;;;5.93;3.88;;;;;;;15.61;69.13;94301.00;5051525;28;20401;-71
2023/06/12 03:04:16;;;;;;;4.93;3.60;;;;;;;15.49;68.56;94254.44;5069051;28;20031;-71
2023/06/12 03:06:44;;;;;;;7.18;4.00;;;;;;;15.65;68.70;94291.81;5067925;28;20031;-71
2023/06/12 03:09:10;;;;;;;4.57;3.83;;;;;;;15.65;68.86;94304.09;5088188;28;20044;-71
2023/06/12 03:11:36;;;;;;;5.25;4.10;;;;;;;15.33;71.75;94307.66;5072685;28;20043;-71
2023/06/12 03:14:02;;;;;;;6.85;4.20;;;;;;;15.62;70.65;94302.63;5068162;28;20025;-71
2023/06/12 03:16:27;;;;;;;9.48;4.50;;;;;;;15.71;70.82;94302.63;5070773;28;20047;-71
2023/06/12 03:18:53;;;;;;;6.65;4.50;;;;;;;15.73;71.03;94304.09;5071571;28;20556;-71
2023/06/12 03:21:18;;;;;;;9.40;4.60;;;;;;;15.64;70.92;94289.38;5073146;28;20043;-71
2023/06/12 03:23:44;;;;;;;4.53;3.63;;;;;;;15.64;70.13;94300.66;5058550;28;20059;-72
2023/06/12 03:26:09;;;;;;;7.53;4.07;;;;;;;15.47;69.71;94272.94;5059543;28;20027;-72
2023/06/12 03:28:35;;;;;;;4.22;3.78;;;;;;;15.48;70.00;94311.19;5093441;28;20042;-71
2023/06/12 03:31:00;;;;;;;4.68;3.65;;;;;;;15.44;70.03;94298.63;5064343;28;20486;-71
2023/06/12 03:33:26;;;;;;;4.43;3.60;;;;;;;15.36;70.05;94307.31;5059593;28;20444;-71
2023/06/12 03:35:52;;;;;;;5.28;4.07;;;;;;;15.37;70.33;94306.31;5054573;28;20041;-71
2023/06/12 03:38:18;;;;;;;5.28;3.67;;;;;;;15.49;69.84;94302.38;5063897;28;20024;-71
2023/06/12 03:40:46;;;;;;;4.75;3.75;;;;;;;15.44;70.27;94299.44;5065331;28;20036;-71
2023/06/12 03:43:14;;;;;;;5.72;3.72;;;;;;;15.54;69.87;94302.66;5068475;28;20039;-71
2023/06/12 03:45:39;;;;;;;4.90;3.65;;;;;;;15.59;69.63;94302.97;5063453;28;20525;-71
2023/06/12 03:48:05;;;;;;;4.63;3.75;;;;;;;15.42;70.33;94296.19;5067691;28;20114;-71
2023/06/12 03:50:31;;;;;;;6.53;3.95;;;;;;;15.46;70.23;94284.41;5083252;28;20032;-71
2023/06/12 03:52:56;;;;;;;5.95;3.88;;;;;;;15.37;70.54;94282.78;5067154;28;20032;-72
2023/06/12 03:55:23;;;;;;;5.10;3.90;;;;;;;15.42;70.60;94283.91;5089391;28;20036;-71
2023/06/12 03:57:49;;;;;;;4.22;3.75;;;;;;;15.33;70.48;94255.31;5050894;28;20115;-71
2023/06/12 04:00:15;;;;;;;5.35;3.95;;;;;;;15.35;70.55;94259.41;5086250;28;20112;-71
2023/06/12 04:02:40;;;;;;;5.07;3.60;;;;;;;15.56;70.61;94286.81;5086810;28;20476;-72
2023/06/12 04:05:08;;;;;;;5.70;3.58;;;;;;;15.50;70.68;94298.75;5088438;28;20039;-72
2023/06/12 04:07:37;;;;;;;8.50;3.90;;;;;;;15.51;70.87;94289.09;5069823;28;20031;-72
2023/06/12 04:10:03;;;;;;;4.35;3.90;;;;;;;15.50;71.28;94288.28;5071674;28;20032;-70
2023/06/12 04:12:29;;;;;;;6.35;4.65;;;;;;;15.69;72.11;94300.19;5051908;28;20110;-72
2023/06/12 04:14:55;;;;;;;7.20;5.10;;;;;;;15.70;71.95;94293.97;5081587;28;20119;-70
2023/06/12 04:17:20;;;;;;;7.35;4.85;;;;;;;15.80;72.34;94299.81;5067706;28;20045;-71
2023/06/12 04:19:48;;;;;;;5.78;4.40;;;;;;;15.80;71.89;94280.69;5086635;28;20047;-70
2023/06/12 04:22:15;;;;;;;7.25;4.38;;;;;;;16.23;72.00;94288.91;5067181;28;20116;-70
2023/06/12 04:24:42;;;;;;;8.82;5.80;;;;;;;16.17;71.02;94295.69;5050675;28;20407;-70
2023/06/12 04:27:10;;;;;;;6.32;4.35;;;;;;;16.33;71.02;94299.19;5068244;28;20478;-70
2023/06/12 04:29:42;;;;;;;6.38;4.53;;;;;;;16.59;69.22;94293.56;5085936;28;20042;-70
2023/06/12 04:32:08;;;;;;;7.20;4.70;;;;;;;16.72;69.25;94288.56;5072012;28;20056;-70
2023/06/12 04:34:39;;;;;;;6.45;4.10;;;;;;;16.69;69.18;94294.16;5072368;28;20050;-70
2023/06/12 04:37:13;;;;;;;5.32;3.92;;;;;;;16.84;68.40;94292.41;5066576;28;20031;-70
2023/06/12 04:39:43;;;;;;;7.63;3.70;;;;;;;16.68;68.01;94288.06;5085806;28;20036;-70
2023/06/12 04:42:10;;;;;;;5.65;4.28;;;;;;;16.73;68.05;94292.81;5069238;28;20111;-70
2023/06/12 04:44:36;;;;;;;6.30;4.50;;;;;;;16.77;67.91;94286.25;5087095;28;20131;-70
2023/06/12 04:47:07;;;;;;;6.03;4.03;;;;;;;16.78;68.50;94287.88;5084504;28;20111;-70
2023/06/12 04:49:33;;;;;;;;;;;;;;;16.89;68.70;94295.31;5083261;28;20402;-70
2023/06/12 04:52:02;;;;;;;5.38;4.57;;;;;;;16.83;68.77;94288.16;5087699;28;20302;-70
2023/06/12 04:54:30;;;;;;;6.35;4.40;;;;;;;17.02;68.17;94284.22;5088225;28;20114;-70
2023/06/12 04:56:57;;;;;;;4.82;3.95;;;;;;;17.08;67.73;94280.06;5068931;28;20027;-70
2023/06/12 04:59:22;;;;;;;5.40;4.00;;;;;;;17.36;67.08;94286.31;5082275;28;20107;-70
2023/06/12 05:01:48;;;;;;;4.05;3.60;;;;;;;17.45;66.73;94271.28;5084507;28;20020;-70
2023/06/12 05:04:14;;;;;;;6.28;4.13;;;;;;;17.80;65.30;94288.13;5061101;28;20035;-70
2023/06/12 05:06:39;;;;;;;6.95;4.03;;;;;;;17.64;65.83;94293.53;5066454;28;20134;-70
2023/06/12 05:09:08;;;;;;;5.97;4.40;;;;;;;17.36;66.17;94243.50;5065924;28;20043;-70
2023/06/12 05:11:34;;;;;;;7.03;4.70;;;;;;;17.71;66.34;94294.41;5052777;28;20023;-70
2023/06/12 05:13:59;;;;;;;9.45;5.07;;;;;;;17.74;67.12;94299.31;5067798;28;20028;-69
2023/06/12 05:16:25;;;;;;;10.43;5.03;;;;;;;17.71;67.70;94294.41;5077005;28;20438;-70
2023/06/12 05:18:51;;;;;;;10.35;5.13;;;;;;;17.82;67.62;94296.59;5076190;28;20106;-70
2023/06/12 05:21:18;;;;;;;7.10;5.20;;;;;;;17.71;67.51;94277.84;5069058;28;20016;-70
2023/06/12 05:23:44;;;;;;;8.57;5.20;;;;;;;17.85;66.35;94301.50;5048612;28;20036;-70
2023/06/12 05:26:10;;;;;;;6.18;4.72;;;;;;;17.92;65.21;94298.97;5070388;28;20097;-70
2023/06/12 05:28:35;;;;;;;5.53;5.03;;;;;;;18.02;64.58;94291.56;5070367;28;20060;-70
2023/06/12 05:31:01;;;;;;;11.95;5.70;;;;;;;17.98;64.15;94284.28;5068553;28;20036;-70
2023/06/12 05:33:27;;;;;;;8.68;4.93;;;;;;;18.12;64.01;94301.00;5090844;28;20470;-70
2023/06/12 05:35:52;;;;;;;6.63;4.85;;;;;;;18.26;63.54;94306.22;5090634;28;20062;-70
2023/06/12 05:38:18;;;;;;;7.65;4.80;;;;;;;18.17;64.31;94311.78;5088975;28;20028;-70
2023/06/12 05:40:43;;;;;;;9.40;5.30;;;;;;;18.17;64.06;94309.16;5071274;28;20031;-71
2023/06/12 05:43:09;;;;;;;6.72;5.20;;;;;;;18.18;64.32;94306.31;5050944;28;20017;-70
2023/06/12 05:45:35;;;;;;;7.55;5.18;;;;;;;18.19;64.72;94313.22;5067380;28;20036;-70
2023/06/12 05:48:00;;;;;;;10.48;5.60;;;;;;;18.22;64.56;94306.75;5051605;28;20494;-71
2023/06/12 05:50:26;;;;;;;7.45;5.45;;;;;;;18.17;64.60;94309.97;5067975;28;20028;-70
2023/06/12 05:52:52;;;;;;;7.72;5.28;;;;;;;18.31;64.41;94303.84;5036099;28;20074;-70
2023/06/12 05:55:17;;;;;;;8.65;5.05;;;;;;;18.34;64.63;94307.09;5070125;28;20029;-70
2023/06/12 05:57:43;;;;;;;7.68;5.50;;;;;;;18.37;64.06;94317.25;5082365;28;20485;-69
2023/06/12 06:00:11;;;;;;;6.28;5.15;;;;;;;18.39;64.25;94315.25;5051762;28;20037;-69
2023/06/12 06:02:38;;;;;;;8.75;5.72;;;;;;;18.35;64.19;94308.72;5069852;28;20025;-69
2023/06/12 06:05:05;;;;;;;8.30;5.90;;;;;;;18.52;64.15;94313.53;5053074;28;20418;-69
2023/06/12 06:07:33;;;;;;;8.32;5.50;;;;;;;18.55;64.36;94314.97;5053348;28;20522;-69
2023/06/12 06:09:58;;;;;;;8.60;6.00;;;;;;;18.72;63.97;94312.91;5053383;28;20090;-69
2023/06/12 06:12:23;;;;;;;7.78;5.25;;;;;;;18.35;63.26;94251.69;5071199;28;20032;-69
2023/06/12 06:14:49;;;;;;;9.57;5.40;;;;;;;18.82;63.61;94312.63;5086404;28;20035;-68
2023/06/12 06:17:14;;;;;;;9.38;6.20;;;;;;;18.36;63.36;94253.31;5036427;28;20033;-68
2023/06/12 06:19:40;;;;;;;8.05;5.57;;;;;;;18.83;63.68;94314.25;5069598;28;20155;-68
2023/06/12 06:22:07;;;;;;;9.70;5.75;;;;;;;18.69;63.22;94300.97;5069719;28;20032;-69
2023/06/12 06:24:32;;;;;;;8.15;5.55;;;;;;;18.47;63.40;94273.88;5053052;28;20029;-68
2023/06/12 06:26:57;;;;;;;6.40;5.80;;;;;;;18.37;63.42;94262.03;5052869;28;20395;-69
2023/06/12 06:29:23;;;;;;;11.00;5.95;;;;;;;18.85;63.77;94317.50;5036158;28;20090;-69
2023/06/12 06:31:48;;;;;;;8.95;5.65;;;;;;;18.71;63.36;94309.47;5052829;28;20028;-71
2023/06/12 06:34:14;;;;;;;9.30;5.28;;;;;;;19.12;62.96;94316.72;5052819;28;20032;-70
2023/06/12 06:36:40;;;;;;;7.03;5.07;;;;;;;19.22;62.91;94308.47;5052917;28;20036;-71
2023/06/12 06:39:05;;;;;;;9.63;5.03;;;;;;;19.22;62.57;94324.25;5052799;28;20041;-71
2023/06/12 06:41:30;;;;;;;6.30;5.18;;;;;;;19.24;62.68;94311.72;5052839;28;20085;-71
2023/06/12 06:43:56;;;;;;;8.75;5.30;;;;;;;19.09;62.85;94317.09;5069480;28;20486;-71
2023/06/12 06:46:21;;;;;;;7.07;4.78;;;;;;;19.43;62.27;94320.78;5052629;28;20438;-71
2023/06/12 06:48:47;;;;;;;7.72;4.97;;;;;;;19.51;61.71;94325.88;5069333;28;20106;-71
2023/06/12 06:51:12;;;;;;;8.23;4.53;;;;;;;19.54;61.67;94324.69;5071047;28;20028;-71
2023/06/12 06:53:38;;;;;;;6.97;4.75;;;;;;;19.48;61.95;94315.75;5075189;28;20035;-71
2023/06/12 06:56:04;;;;;;;8.00;4.60;;;;;;;19.31;62.17;94317.88;5073500;28;20032;-71
2023/06/12 06:58:30;;;;;;;6.97;4.60;;;;;;;19.30;62.46;94315.41;5090374;28;20032;-71
2023/06/12 07:00:55;;;;;;;7.47;4.65;;;;;;;19.33;62.69;94313.19;5040169;28;20032;-71
2023/06/12 07:03:21;;;;;;;7.38;4.88;;;;;;;19.30;62.28;94312.78;5040113;28;20056;-71
2023/06/12 07:05:46;;;;;;;6.38;4.95;;;;;;;19.43;62.03;94315.50;5073210;28;20078;-71
2023/06/12 07:08:12;;;;;;;7.10;4.80;;;;;;;19.39;62.79;94301.91;5073417;28;20025;-71
2023/06/12 07:10:37;;;;;;;9.25;6.00;;;;;;;19.24;62.93;94281.97;5039755;28;20037;-71
2023/06/12 07:13:02;;;;;;;7.25;5.20;;;;;;;19.18;63.28;94286.97;5073289;28;20024;-71
2023/06/12 07:15:28;;;;;;;9.43;4.85;;;;;;;19.35;62.99;94298.03;5073159;28;20486;-71
2023/06/12 07:17:53;;;;;;;6.97;4.97;;;;;;;19.43;62.75;94310.22;5073022;28;20040;-71
2023/06/12 07:20:19;;;;;;;6.45;4.68;;;;;;;19.44;62.23;94296.06;5074349;28;20076;-71
2023/06/12 07:22:45;;;;;;;7.47;4.40;;;;;;;19.60;61.57;94301.00;5072947;28;20028;-69
2023/06/12 07:25:10;;;;;;;6.75;4.80;;;;;;;19.59;61.87;94299.38;5074002;28;20036;-70
2023/06/12 07:27:36;;;;;;;7.38;4.50;;;;;;;19.72;61.78;94298.66;5056181;28;20082;-70
2023/06/12 07:30:01;;;;;;;6.07;3.92;;;;;;;19.74;61.96;94299.28;5089548;28;20028;-69
2023/06/12 07:32:27;;;;;;;8.73;3.97;;;;;;;19.79;61.22;94306.59;5073871;28;20021;-70
2023/06/12 07:34:54;;;;;;;8.77;4.72;;;;;;;20.02;61.12;94301.81;5056143;28;20109;-70
2023/06/12 07:37:20;;;;;;;5.90;4.68;;;;;;;19.98;61.20;94289.25;5056240;28;20448;-69
2023/06/12 07:39:47;;;;;;;5.60;3.95;;;;;;;20.01;60.67;94291.50;5072618;28;20103;-69
2023/06/12 07:42:13;;;;;;;6.68;4.20;;;;;;;19.99;60.49;94296.94;5072756;28;20100;-69
2023/06/12 07:44:40;;;;;;;8.38;3.88;;;;;;;19.73;61.91;94289.75;5072488;28;20024;-69
2023/06/12 07:47:06;;;;;;;5.90;4.18;;;;;;;19.83;61.66;94299.94;5072531;28;20024;-69
2023/06/12 07:49:32;;;;;;;6.35;4.25;;;;;;;19.92;60.35;94298.75;5073797;28;20056;-69
2023/06/12 07:51:58;;;;;;;7.63;4.35;;;;;;;19.95;61.47;94287.03;5073773;28;20077;-69
2023/06/12 07:54:23;;;;;;;8.65;4.47;;;;;;;20.14;60.96;94291.53;5039127;28;20044;-70
2023/06/12 07:56:50;;;;;;;5.00;3.45;;;;;;;20.13;60.33;94294.38;5055757;28;20028;-69
2023/06/12 07:59:16;;;;;;;9.77;5.90;;;;;;;20.21;59.75;94292.34;5089051;28;20032;-69
2023/06/12 08:01:41;;;;;;;7.90;4.65;;;;;;;20.19;59.90;94294.38;5071724;28;20024;-69
2023/06/12 08:04:10;;;;;;;9.02;4.60;;;;;;;20.17;59.61;94267.41;5072194;28;20101;-69
2023/06/12 08:06:37;;;;;;;7.63;3.80;;;;;;;20.38;59.14;94287.53;5055961;28;20159;-70
2023/06/12 08:09:03;;;;;;;6.85;4.60;;;;;;;20.32;58.88;94280.41;5055567;28;20039;-69
2023/06/12 08:11:28;;;;;;;8.32;4.93;;;;;;;20.46;59.29;94282.06;5055219;28;20021;-69
2023/06/12 08:13:54;;;;;;;11.60;5.18;;;;;;;20.44;59.08;94283.28;5071952;28;20041;-69
2023/06/12 08:16:20;;;;;;;6.43;4.30;;;;;;;20.56;59.22;94289.63;5055411;28;20475;-69
2023/06/12 08:18:46;;;;;;;13.00;5.28;;;;;;;20.70;59.25;94280.72;5071944;28;20067;-69
2023/06/12 08:21:11;;;;;;;7.43;4.30;;;;;;;20.86;57.53;94278.69;5055315;28;20402;-69
2023/06/12 08:23:37;;;;;;;5.55;3.72;;;;;;;20.70;58.88;94287.81;5071963;28;20453;-69
2023/06/12 08:26:05;;;;;;;5.57;4.13;;;;;;;21.11;58.93;94289.44;5071814;28;20464;-69
2023/06/12 08:28:33;;;;;;;7.07;3.92;;;;;;;21.00;57.66;94284.78;5072152;28;20051;-69
2023/06/12 08:30:59;;;;;;;5.25;4.43;;;;;;;21.12;58.23;94286.59;5055058;28;20032;-69
2023/06/12 08:33:25;;;;;;;7.35;4.20;;;;;;;21.03;58.40;94289.63;5071790;28;20387;-70
2023/06/12 08:35:50;;;;;;;9.25;4.45;;;;;;;20.98;58.56;94277.06;5071656;28;20040;-70
2023/06/12 08:38:16;;;;;;;8.95;4.00;;;;;;;21.04;57.86;94280.72;5071575;28;20032;-69
2023/06/12 08:40:42;;;;;;;5.65;4.25;;;;;;;21.32;57.47;94286.56;5055035;28;20435;-70
2023/06/12 08:43:07;;;;;;;5.90;4.40;;;;;;;21.67;57.91;94283.66;5055013;28;20025;-69
2023/06/12 08:45:33;;;;;;;4.95;3.88;;;;;;;21.96;55.45;94276.25;5071481;28;20040;-69
2023/06/12 08:47:58;;;;;;;6.35;3.80;;;;;;;22.24;55.00;94274.09;5054587;28;20037;-69
2023/06/12 08:50:24;;;;;;;5.65;4.07;;;;;;;22.29;53.83;94274.28;5054588;28;20032;-68
2023/06/12 08:52:50;;;;;;;9.18;4.22;;;;;;;22.23;54.18;94275.13;5054428;28;20418;-69
2023/06/12 08:55:15;;;;;;;7.32;4.25;;;;;;;22.24;54.39;94276.75;5054499;28;20522;-69
2023/06/12 08:57:42;;;;;;;4.80;3.90;;;;;;;22.25;54.05;94265.13;5072564;28;20576;-69
2023/06/12 09:00:11;;;;;;;4.75;3.70;;;;;;;22.44;53.44;94254.66;5072276;28;20107;-68
2023/06/12 09:02:39;;;;;;;6.30;4.28;;;;;;;22.85;53.22;94277.19;5054937;28;20033;-69
2023/06/12 09:05:05;;;;;;;5.63;3.95;;;;;;;22.66;52.91;94245.34;5054468;28;20104;-69
2023/06/12 09:07:33;;;;;;;6.57;3.72;;;;;;;22.91;51.91;94273.66;5037748;28;20079;-69
2023/06/12 09:09:59;;;;;;;6.85;3.97;;;;;;;22.72;52.59;94268.28;5054328;28;20016;-69
2023/06/12 09:12:24;;;;;;;7.18;4.00;;;;;;;22.77;52.08;94269.50;5070880;28;20498;-69
2023/06/12 09:14:50;;;;;;;6.25;3.63;;;;;;;22.78;51.68;94248.09;5053436;28;20040;-69
2023/06/12 09:17:15;;;;;;;5.43;3.70;;;;;;;23.01;52.78;94257.31;5070801;28;20041;-69
2023/06/12 09:19:45;;;;;;;6.47;3.83;;;;;;;22.86;52.71;94252.31;5037280;28;20014;-69
2023/06/12 09:22:10;;;;;;;7.82;3.83;;;;;;;22.69;51.80;94250.19;5037709;28;20066;-68
2023/06/12 09:24:36;;;;;;;5.47;3.58;;;;;;;22.82;51.95;94267.03;5053874;28;20021;-69
2023/06/12 09:27:02;;;;;;;5.35;3.75;;;;;;;22.95;50.34;94262.44;5070590;28;20040;-69
2023/06/12 09:29:35;;;;;;;5.60;3.60;;;;;;;22.89;51.29;94255.34;5070479;28;20028;-69
2023/06/12 09:32:06;;;;;;;5.28;3.58;;;;;;;22.75;51.89;94249.34;5053834;28;20043;-69
2023/06/12 09:34:31;;;;;;;6.25;4.00;;;;;;;22.83;51.70;94247.44;5054758;28;20028;-69
2023/06/12 09:37:08;;;;;;;5.07;3.55;;;;;;;22.74;50.71;94221.25;5037112;28;20449;-69
2023/06/12 09:39:34;;;;;;;6.97;3.83;;;;;;;23.15;50.96;94233.16;5039078;28;20059;-69
2023/06/12 09:42:01;;;;;;;5.15;3.40;;;;;;;23.12;51.32;94225.66;5053651;28;20040;-69
2023/06/12 09:44:30;;;;;;;6.53;3.58;;;;;;;23.25;51.05;94237.94;5053819;28;20409;-69
2023/06/12 09:47:01;;;;;;;5.90;3.75;;;;;;;23.11;50.57;94220.53;5070086;28;20062;-70
2023/06/12 09:49:26;;;;;;;;;;;;;;;23.30;50.04;94238.09;5054140;28;20094;-69
2023/06/12 09:51:53;;;;;;;6.10;3.30;;;;;;;23.34;50.32;94239.25;5069988;28;19920;-69
2023/06/12 09:54:19;;;;;;;4.90;3.10;;;;;;;23.18;49.01;94202.75;5053628;28;20028;-69
2023/06/12 09:56:45;;;;;;;6.82;3.30;;;;;;;23.28;48.47;94218.13;5036676;28;20045;-69
2023/06/12 09:59:18;;;;;;;4.10;3.00;;;;;;;23.14;47.75;94226.22;5053445;28;20113;-69
2023/06/12 10:01:49;;;;;;;6.32;3.05;;;;;;;23.33;48.14;94232.34;5053285;28;20059;-69
2023/06/12 10:04:17;;;;;;;4.93;2.67;;;;;;;23.23;46.73;94228.56;5069787;28;20029;-69
2023/06/12 10:06:42;;;;;;;7.93;2.33;;;;;;;23.02;45.61;94190.88;5053426;28;20489;-69
2023/06/12 10:09:08;;;;;;;4.78;2.03;;;;;;;23.29;43.97;94219.75;5053082;28;20115;-69
2023/06/12 10:11:36;;;;;;;3.45;2.00;;;;;;;23.24;43.27;94216.97;5036488;28;20086;-69
2023/06/12 10:14:02;;;;;;;2.42;1.67;;;;;;;23.10;44.01;94205.69;5053392;28;20032;-70
2023/06/12 10:16:27;;;;;;;3.28;1.80;;;;;;;23.19;47.16;94220.28;5053108;28;20021;-69
2023/06/12 10:18:54;;;;;;;3.28;1.83;;;;;;;23.09;46.41;94234.00;5052998;28;20032;-69
2023/06/12 10:21:20;;;;;;;5.85;2.28;;;;;;;22.96;47.18;94202.38;5069667;28;20052;-69
2023/06/12 10:23:45;;;;;;;3.08;1.85;;;;;;;22.93;45.38;94222.13;5036188;28;20028;-69
2023/06/12 10:26:11;;;;;;;3.10;2.08;;;;;;;22.85;45.59;94222.38;5035982;28;20033;-69
2023/06/12 10:28:36;;;;;;;4.50;1.95;;;;;;;22.78;46.73;94228.75;5053071;28;20041;-69
2023/06/12 10:31:12;;;;;;;3.55;2.22;;;;;;;22.79;47.44;94219.78;5086360;28;20020;-69
2023/06/12 10:33:38;;;;;;;6.97;2.33;;;;;;;22.44;50.40;94194.59;5036919;28;20037;-70
2023/06/12 10:36:11;;;;;;;21.15;2.90;;;;;;;22.05;60.72;94150.69;5052926;28;20024;-70
2023/06/12 10:38:44;;;;;;;4.63;2.55;;;;;;;22.35;60.84;94224.19;5069672;28;20032;-70
2023/06/12 10:41:10;;;;;;;5.50;2.60;;;;;;;21.94;60.58;94228.84;5069673;28;20509;-70
2023/06/12 10:43:35;;;;;;;4.97;2.70;;;;;;;21.76;61.47;94231.41;5069793;28;20037;-69
2023/06/12 10:46:00;;;;;;;6.72;2.70;;;;;;;21.57;60.07;94230.44;5069572;28;20033;-69
2023/06/12 10:48:26;;;;;;;4.00;2.47;;;;;;;21.23;60.45;94242.91;5086060;28;20037;-69
2023/06/12 10:50:56;;;;;;;4.85;2.33;;;;;;;21.01;58.80;94236.25;5036155;28;20032;-69
2023/06/12 10:53:22;;;;;;;3.78;2.55;;;;;;;20.92;56.34;94240.91;5069550;28;20167;-69
2023/06/12 10:55:48;;;;;;;3.05;2.50;;;;;;;20.65;61.14;94234.84;5070611;28;20036;-69
2023/06/12 10:58:19;;;;;;;4.07;2.92;;;;;;;20.70;65.89;94221.84;5070949;28;20033;-69
2023/06/12 11:00:46;;;;;;;4.63;2.50;;;;;;;20.67;63.39;94227.50;5069355;28;20025;-71
2023/06/12 11:03:13;;;;;;;5.00;3.10;;;;;;;20.79;69.29;94228.53;5070983;28;20036;-69
2023/06/12 11:05:44;;;;;;;4.32;2.75;;;;;;;20.67;67.82;94209.03;5052601;28;20040;-69
2023/06/12 11:08:10;;;;;;;6.15;2.90;;;;;;;20.69;67.18;94199.91;5053588;28;20033;-69
2023/06/12 11:10:36;;;;;;;4.72;2.83;;;;;;;20.70;66.45;94208.66;5052765;28;20040;-69
2023/06/12 11:13:02;;;;;;;4.20;3.05;;;;;;;20.64;67.92;94207.63;5069449;28;20426;-70
2023/06/12 11:15:28;;;;;;;3.65;3.00;;;;;;;20.78;67.83;94218.97;5052979;28;20482;-70
2023/06/12 11:17:53;;;;;;;4.03;3.28;;;;;;;20.87;67.91;94212.50;5052613;28;20094;-69
2023/06/12 11:20:20;;;;;;;5.18;3.17;;;;;;;21.00;69.16;94216.13;5069339;28;20056;-69
2023/06/12 11:22:48;;;;;;;5.28;3.67;;;;;;;20.88;68.83;94214.13;5069304;28;20060;-70
2023/06/12 11:25:13;;;;;;;4.65;3.58;;;;;;;20.61;66.00;94217.78;5036117;28;20066;-70
2023/06/12 11:27:39;;;;;;;6.05;3.13;;;;;;;20.45;64.68;94224.25;5035914;28;20451;-70
2023/06/12 11:30:08;;;;;;;4.53;3.50;;;;;;;20.40;64.55;94231.97;5069014;28;20413;-70